Time;durP1;ratioP1;P1;durP2;ratioP2;P2;SDS_P1;SDS_P2;PMS_P1;PMS_P2;Temp;Humidity;BMP_temperature;BMP_pressure;BME280_temperature;BME280_humidity;BME280_pressure;Samples;Min_cycle;Max_cycle;Signal;HPM_P1;HPM_P2
2023/06/05 00:06:43;;;;;;;;;;;;;;;11.58;43.88;100112.30;436781;1254;140432;-63
2023/06/05 00:16:51;;;;;;;1.20;1.00;;;;;;;11.43;43.91;100111.94;436426;1251;125541;-64
2023/06/05 00:26:57;;;;;;;4.90;1.10;;;;;;;11.39;43.99;100114.44;436550;1251;139285;-63
2023/06/05 00:37:03;;;;;;;3.90;1.60;;;;;;;11.28;44.53;100113.49;436501;1251;139208;-64
2023/06/05 00:47:09;;;;;;;6.70;1.90;;;;;;;11.09;45.98;100114.61;436487;1251;138792;-65
2023/06/05 00:57:15;;;;;;;5.10;2.10;;;;;;;10.59;48.35;100114.77;436644;1250;138877;-62
2023/06/05 01:07:21;;;;;;;3.30;1.30;;;;;;;10.12;50.00;100107.67;436710;1251;140049;-64
2023/06/05 01:17:29;;;;;;;3.60;1.20;;;;;;;9.70;51.39;100104.98;437108;1253;138439;-64
2023/06/05 01:27:48;;;;;;;2.60;1.10;;;;;;;9.33;52.49;100098.96;437714;1251;138649;-63
2023/06/05 01:37:55;;;;;;;4.30;1.80;;;;;;;9.00;53.76;100092.59;436737;1253;140126;-64
2023/06/05 01:48:03;;;;;;;5.50;2.10;;;;;;;8.70;54.60;100094.73;436726;1253;138369;-63
2023/06/05 01:58:09;;;;;;;8.40;1.90;;;;;;;8.44;55.80;100095.59;437263;1251;139130;-63
2023/06/05 02:08:17;;;;;;;3.50;1.40;;;;;;;8.19;56.54;100095.67;436701;1251;138661;-63
2023/06/05 02:18:24;;;;;;;1.70;1.20;;;;;;;7.98;57.56;100096.59;436843;1251;138838;-64
2023/06/05 02:28:29;;;;;;;;;;;;;;;7.85;58.06;100096.33;436698;1251;138927;-64
2023/06/05 02:38:35;;;;;;;5.30;1.90;;;;;;;7.77;58.48;100098.73;436571;1253;125256;-63
2023/06/05 02:48:41;;;;;;;5.80;2.20;;;;;;;7.78;58.76;100099.77;436739;1253;139694;-63
2023/06/05 02:58:47;;;;;;;3.90;1.60;;;;;;;8.13;59.17;100095.75;436777;1253;140017;-63
2023/06/05 03:08:55;;;;;;;4.60;2.30;;;;;;;9.65;58.92;100093.30;436976;1253;139485;-64
2023/06/05 03:19:01;;;;;;;3.40;1.50;;;;;;;13.30;53.99;100088.06;437161;1251;139753;-64
2023/06/05 03:29:07;;;;;;;6.10;1.40;;;;;;;13.96;49.94;100086.84;436723;1253;138649;-63
2023/06/05 03:39:14;;;;;;;5.80;3.00;;;;;;;13.67;49.32;100085.51;436536;1253;139185;-64
2023/06/05 03:49:20;;;;;;;10.60;3.20;;;;;;;13.02;49.34;100090.51;436509;1251;139538;-63
2023/06/05 03:59:28;;;;;;;6.00;2.60;;;;;;;14.04;50.26;100088.65;436922;1251;138776;-63
2023/06/05 04:09:33;;;;;;;3.90;2.50;;;;;;;21.46;44.02;100076.70;437087;1251;140215;-64
2023/06/05 04:19:39;;;;;;;5.70;2.90;;;;;;;27.45;36.10;100067.79;436611;1253;139257;-63
2023/06/05 04:29:46;;;;;;;15.70;5.10;;;;;;;31.41;30.44;100068.38;436916;1253;139318;-63
2023/06/05 04:39:55;;;;;;;10.70;3.60;;;;;;;34.60;26.72;100066.69;436865;1251;138707;-63
2023/06/05 04:50:04;;;;;;;9.80;2.90;;;;;;;37.58;23.32;100072.41;436610;1253;139137;-62
2023/06/05 05:00:12;;;;;;;3.30;1.80;;;;;;;40.02;20.08;100068.21;436987;1253;139443;-64
2023/06/05 05:10:18;;;;;;;2.50;1.50;;;;;;;42.12;17.71;100069.20;436648;1253;139818;-62
2023/06/05 05:20:24;;;;;;;4.60;1.40;;;;;;;43.70;15.78;100067.92;436477;1253;139459;-62
2023/06/05 05:30:31;;;;;;;3.20;1.20;;;;;;;45.02;14.34;100070.53;436535;1251;140295;-63
2023/06/05 05:40:37;;;;;;;4.40;1.50;;;;;;;46.21;13.31;100069.15;436986;1253;139262;-62
2023/06/05 05:50:44;;;;;;;6.30;2.20;;;;;;;47.30;12.39;100072.35;436725;1251;138593;-62
2023/06/05 06:00:49;;;;;;;4.20;1.70;;;;;;;47.75;11.95;100073.63;437273;1253;139763;-64
2023/06/05 06:10:56;;;;;;;4.40;1.70;;;;;;;49.38;11.49;100080.66;436807;1251;139336;-65
2023/06/05 06:21:01;;;;;;;2.20;1.30;;;;;;;50.57;10.77;100083.70;436799;1254;139848;-63
2023/06/05 06:31:08;;;;;;;1.40;1.30;;;;;;;50.94;10.14;100081.98;436758;1253;139488;-63
2023/06/05 06:41:15;;;;;;;1.40;1.30;;;;;;;51.95;9.46;100081.52;437259;1251;138891;-62
2023/06/05 06:51:21;;;;;;;2.80;1.90;;;;;;;52.27;9.08;100081.98;436525;1251;138709;-63
2023/06/05 07:01:28;;;;;;;2.10;2.00;;;;;;;52.54;8.90;100084.88;436546;1253;139398;-62
2023/06/05 07:11:35;;;;;;;3.70;3.50;;;;;;;52.37;8.50;100083.59;436861;1253;139230;-62
2023/06/05 07:21:40;;;;;;;5.00;4.80;;;;;;;53.26;8.12;100084.35;436503;1253;152069;-62
2023/06/05 07:31:47;;;;;;;5.10;4.60;;;;;;;53.65;8.03;100085.84;436470;1251;138426;-62
2023/06/05 07:41:53;;;;;;;4.00;3.80;;;;;;;53.19;8.13;100084.86;436410;1254;138870;-62
2023/06/05 07:51:58;;;;;;;3.30;1.00;;;;;;;52.65;7.90;100081.20;436862;1254;138393;-62
2023/06/05 08:02:05;;;;;;;3.70;0.80;;;;;;;44.81;9.54;100074.77;436320;1254;138613;-62
2023/06/05 08:12:11;;;;;;;5.30;1.30;;;;;;;37.39;12.00;100076.77;436758;1256;139121;-63
2023/06/05 08:22:17;;;;;;;2.20;0.80;;;;;;;34.24;13.93;100066.27;436488;1253;138684;-62
2023/06/05 08:32:23;;;;;;;2.00;0.60;;;;;;;32.40;15.06;100068.02;436900;1254;138469;-63
2023/06/05 08:42:29;;;;;;;3.30;1.00;;;;;;;30.26;16.48;100065.48;436294;1253;139986;-63
2023/06/05 08:52:38;;;;;;;1.00;0.40;;;;;;;29.59;17.44;100064.63;437097;1253;139071;-63
2023/06/05 09:02:47;;;;;;;2.70;0.80;;;;;;;29.51;17.88;100061.28;437006;1255;140984;-63
2023/06/05 09:12:58;;;;;;;1.20;0.50;;;;;;;28.44;18.46;100061.20;436791;1254;140158;-64
2023/06/05 09:23:06;;;;;;;4.00;0.90;;;;;;;27.88;19.06;100060.04;436684;1251;138749;-64
2023/06/05 09:33:30;;;;;;;0.80;0.80;;;;;;;27.53;19.88;100053.63;436466;1253;139058;-65
2023/06/05 09:43:37;;;;;;;4.30;0.60;;;;;;;27.07;20.13;100049.52;436560;1254;140079;-65
2023/06/05 09:53:45;;;;;;;1.10;0.80;;;;;;;26.32;20.60;100042.80;437047;1251;138687;-65
2023/06/05 10:03:57;;;;;;;1.90;0.80;;;;;;;25.93;21.07;100042.76;437120;1254;139298;-65
2023/06/05 10:14:03;;;;;;;1.10;0.90;;;;;;;25.58;21.67;100039.02;436533;1253;139145;-64
2023/06/05 10:24:15;;;;;;;12.70;1.70;;;;;;;25.43;22.17;100023.98;436684;1251;140126;-67
2023/06/05 10:34:35;;;;;;;18.60;3.10;;;;;;;25.36;22.70;100022.31;436831;1251;139983;-71
2023/06/05 10:44:45;;;;;;;3.00;0.80;;;;;;;24.80;23.16;100021.99;437523;1251;138642;-67
2023/06/05 10:54:58;;;;;;;1.60;1.00;;;;;;;24.47;23.67;100008.46;436910;1254;138680;-66
2023/06/05 11:05:11;;;;;;;2.60;0.70;;;;;;;24.32;24.00;100002.70;436873;1251;139171;-61
2023/06/05 11:15:36;;;;;;;7.10;1.40;;;;;;;23.75;24.57;100001.67;436899;1252;138830;-60
2023/06/05 11:25:42;;;;;;;1.20;0.90;;;;;;;23.43;24.89;100000.80;436679;1251;138551;-60
2023/06/05 11:35:49;;;;;;;1.70;1.60;;;;;;;23.37;25.20;100000.16;436320;1253;139206;-60
2023/06/05 11:45:56;;;;;;;1.80;0.90;;;;;;;23.35;25.10;100001.80;436558;1251;139292;-60
2023/06/05 11:56:13;;;;;;;1.30;1.10;;;;;;;23.45;25.12;99982.70;436746;1251;139033;-60
2023/06/05 12:06:21;;;;;;;1.00;0.80;;;;;;;23.46;25.07;99978.17;436445;1253;140297;-60
2023/06/05 12:16:35;;;;;;;2.30;1.10;;;;;;;23.50;25.39;99971.25;436679;1251;139447;-60
2023/06/05 12:26:55;;;;;;;4.60;1.00;;;;;;;23.52;25.80;99968.33;436669;1251;140078;-59
2023/06/05 12:37:01;;;;;;;2.70;1.30;;;;;;;23.61;25.57;99952.48;437433;1253;138314;-59
2023/06/05 12:47:07;;;;;;;3.90;1.30;;;;;;;23.65;25.32;99949.38;436776;1251;138568;-60
2023/06/05 12:57:14;;;;;;;2.50;1.10;;;;;;;23.59;25.42;99942.13;436907;1251;139250;-60
2023/06/05 13:07:21;;;;;;;1.20;1.10;;;;;;;23.57;25.44;99939.60;436912;1250;138462;-60
2023/06/05 13:17:27;;;;;;;1.50;1.20;;;;;;;23.59;25.65;99929.52;437326;1251;138348;-60
2023/06/05 13:27:33;;;;;;;1.20;0.60;;;;;;;23.45;25.75;99920.20;437199;1253;141906;-61
2023/06/05 13:37:40;;;;;;;2.80;1.10;;;;;;;23.41;25.71;99905.41;436660;1253;138698;-60
2023/06/05 13:47:47;;;;;;;2.70;0.90;;;;;;;23.45;25.79;99906.27;437565;1250;140283;-60
2023/06/05 13:57:53;;;;;;;1.10;1.00;;;;;;;23.25;25.87;99901.98;436362;1253;138704;-60
2023/06/05 14:07:59;;;;;;;4.90;1.30;;;;;;;23.10;26.07;99890.06;436300;1251;139369;-60
2023/06/05 14:18:06;;;;;;;4.30;1.10;;;;;;;23.28;26.06;99880.97;437205;1251;140311;-59
2023/06/05 14:28:13;;;;;;;1.00;0.80;;;;;;;23.38;26.12;99866.88;436644;1251;138258;-60
2023/06/05 14:38:19;;;;;;;2.40;1.20;;;;;;;23.35;26.11;99863.57;436641;1253;140181;-61
2023/06/05 14:48:24;;;;;;;2.80;1.10;;;;;;;23.30;26.38;99856.48;436894;1253;139910;-60
2023/06/05 14:58:30;;;;;;;1.10;1.00;;;;;;;23.32;26.59;99852.65;436534;1254;139185;-59
2023/06/05 15:08:36;;;;;;;1.20;1.00;;;;;;;23.32;26.63;99843.57;436372;1252;138628;-60
2023/06/05 15:18:42;;;;;;;3.30;1.00;;;;;;;23.34;26.70;99838.87;436950;1250;138932;-59
2023/06/05 15:28:48;;;;;;;3.10;1.40;;;;;;;23.35;26.77;99837.73;436378;1251;139447;-60
2023/06/05 15:38:54;;;;;;;0.90;0.80;;;;;;;23.33;26.82;99832.77;436420;1253;139730;-60
2023/06/05 15:48:59;;;;;;;2.70;1.20;;;;;;;23.21;27.20;99829.03;436492;1251;140940;-60
2023/06/05 15:59:05;;;;;;;2.60;0.90;;;;;;;23.03;27.47;99827.02;436614;1251;139694;-61
2023/06/05 16:09:11;;;;;;;1.20;1.10;;;;;;;22.88;27.58;99822.02;436368;1254;139051;-59
2023/06/05 16:19:17;;;;;;;1.10;0.80;;;;;;;22.78;27.94;99820.11;436537;1249;139814;-60
2023/06/05 16:29:22;;;;;;;2.50;1.40;;;;;;;22.74;28.23;99819.67;436226;1253;139419;-59
2023/06/05 16:39:28;;;;;;;3.60;1.60;;;;;;;22.61;28.34;99826.66;436586;1253;138631;-59
2023/06/05 16:49:34;;;;;;;2.70;1.40;;;;;;;22.70;28.51;99826.95;436909;1253;138889;-59
2023/06/05 16:59:40;;;;;;;1.50;1.30;;;;;;;22.45;28.69;99824.48;436556;1251;140252;-60
2023/06/05 17:09:46;;;;;;;2.60;1.30;;;;;;;22.11;28.99;99816.98;436968;1253;139869;-59
2023/06/05 17:19:51;;;;;;;3.90;1.50;;;;;;;21.91;29.31;99819.07;436108;1251;138620;-60
2023/06/05 17:29:57;;;;;;;5.70;1.60;;;;;;;21.74;29.77;99816.65;436476;1251;139610;-61
2023/06/05 17:40:03;;;;;;;1.20;1.10;;;;;;;21.52;29.97;99819.09;436565;1251;138521;-61
2023/06/05 17:50:11;;;;;;;5.60;2.60;;;;;;;21.29;30.18;99819.95;436262;1253;138755;-60
2023/06/05 18:00:18;;;;;;;1.80;1.70;;;;;;;21.01;30.78;99819.27;436143;1250;138539;-60
2023/06/05 18:10:24;;;;;;;4.00;1.80;;;;;;;20.70;31.06;99820.33;437054;1251;139655;-59
2023/06/05 18:20:30;;;;;;;3.30;1.60;;;;;;;20.36;31.72;99825.55;436277;1251;138492;-61
2023/06/05 18:30:38;;;;;;;4.90;1.00;;;;;;;20.03;32.25;99835.02;436491;1251;140385;-59
2023/06/05 18:40:44;;;;;;;3.10;1.60;;;;;;;19.70;32.92;99831.33;436503;1253;138457;-61
2023/06/05 18:50:50;;;;;;;3.20;2.00;;;;;;;19.40;33.67;99837.10;436627;1250;139420;-59
2023/06/05 19:00:56;;;;;;;3.90;1.80;;;;;;;19.08;34.36;99841.59;436439;1251;138557;-60
2023/06/05 19:11:02;;;;;;;4.20;2.40;;;;;;;18.78;34.86;99856.02;436615;1251;139207;-59
2023/06/05 19:21:07;;;;;;;4.50;1.40;;;;;;;18.60;35.40;99859.02;436324;1251;138654;-63
2023/06/05 19:31:14;;;;;;;1.60;1.40;;;;;;;18.44;35.59;99866.09;436642;1251;141366;-64
2023/06/05 19:41:20;;;;;;;3.60;1.80;;;;;;;18.21;36.10;99867.86;436511;1251;138261;-65
2023/06/05 19:51:26;;;;;;;3.40;1.30;;;;;;;17.98;36.47;99861.74;436304;1251;138713;-65
2023/06/05 20:01:36;;;;;;;3.60;1.60;;;;;;;17.69;37.08;99865.23;436367;1251;139278;-65
2023/06/05 20:11:43;;;;;;;3.50;1.70;;;;;;;17.52;37.73;99869.41;437028;1251;139913;-65
2023/06/05 20:21:48;;;;;;;3.80;1.90;;;;;;;17.37;37.95;99866.95;436609;1251;138992;-64
2023/06/05 20:31:54;;;;;;;4.20;1.60;;;;;;;17.20;38.39;99874.11;436592;1253;138434;-64
2023/06/05 20:42:04;;;;;;;4.20;1.50;;;;;;;17.09;38.74;99872.77;436735;1251;140089;-64
2023/06/05 20:52:10;;;;;;;3.30;1.50;;;;;;;17.02;38.66;99875.35;437018;1253;138556;-66
2023/06/05 21:02:17;;;;;;;4.20;2.20;;;;;;;16.98;38.74;99876.36;437247;1253;138889;-67
2023/06/05 21:12:23;;;;;;;3.70;1.80;;;;;;;16.92;38.73;99879.98;436816;1253;138467;-65
2023/06/05 21:22:29;;;;;;;2.80;1.60;;;;;;;16.89;38.99;99882.94;436687;1251;139372;-64
2023/06/05 21:32:35;;;;;;;3.20;1.80;;;;;;;16.85;39.10;99879.06;436498;1253;138872;-65
2023/06/05 21:42:41;;;;;;;9.30;2.40;;;;;;;16.67;39.51;99877.34;436490;1253;139931;-65
2023/06/05 21:52:47;;;;;;;2.90;2.10;;;;;;;16.55;39.75;99877.34;436605;1251;139202;-65
2023/06/05 22:02:53;;;;;;;2.60;1.90;;;;;;;16.43;40.10;99878.02;437065;1253;139460;-68
2023/06/05 22:13:00;;;;;;;3.20;2.00;;;;;;;16.28;40.31;99877.61;436640;1253;140369;-64
2023/06/05 22:23:06;;;;;;;1.90;1.50;;;;;;;16.13;40.64;99877.13;437580;1250;139106;-64
2023/06/05 22:33:12;;;;;;;6.10;2.10;;;;;;;15.96;41.00;99878.88;437141;1249;139415;-65
2023/06/05 22:43:18;;;;;;;2.20;1.40;;;;;;;15.79;41.38;99874.74;437223;1251;139402;-64
2023/06/05 22:53:24;;;;;;;5.30;2.10;;;;;;;15.63;41.72;99875.63;436998;1253;138688;-65
2023/06/05 23:03:33;;;;;;;5.30;2.20;;;;;;;15.45;42.26;99873.33;437031;1251;139195;-65
2023/06/05 23:13:39;;;;;;;2.80;2.10;;;;;;;15.24;42.59;99872.17;436659;1251;138842;-64
2023/06/05 23:23:45;;;;;;;4.40;2.00;;;;;;;15.05;42.98;99873.45;437014;1251;139010;-64
2023/06/05 23:33:51;;;;;;;2.50;2.20;;;;;;;14.97;43.18;99873.05;436776;1251;138541;-64
2023/06/05 23:43:57;;;;;;;5.50;2.00;;;;;;;14.91;43.24;99877.42;436466;1251;139759;-64
2023/06/05 23:54:03;;;;;;;4.40;2.20;;;;;;;14.83;43.42;99880.27;436928;1253;139603;-64
